createdAt,value
2018-09-30T00:00:30.836Z,1008.64
2018-09-30T00:01:30.805Z,1008.61
2018-09-30T00:02:30.778Z,1008.64
2018-09-30T00:03:30.759Z,1008.59
2018-09-30T00:04:30.724Z,1008.60
2018-09-30T00:05:30.701Z,1008.56
2018-09-30T00:06:30.679Z,1008.54
2018-09-30T00:07:30.640Z,1008.51
2018-09-30T00:08:30.619Z,1008.49
2018-09-30T00:09:30.592Z,1008.48
2018-09-30T00:10:30.565Z,1008.53
2018-09-30T00:11:30.541Z,1008.52
2018-09-30T00:12:30.509Z,1008.53
2018-09-30T00:13:30.483Z,1008.53
2018-09-30T00:14:30.460Z,1008.53
2018-09-30T00:15:30.427Z,1008.48
2018-09-30T00:16:30.399Z,1008.49
2018-09-30T00:17:30.375Z,1008.54
2018-09-30T00:18:30.346Z,1008.50
2018-09-30T00:19:30.382Z,1008.48
2018-09-30T00:20:30.293Z,1008.50
2018-09-30T00:21:30.267Z,1008.49
2018-09-30T00:22:30.240Z,1008.46
2018-09-30T00:23:30.211Z,1008.47
2018-09-30T00:24:30.183Z,1008.46
2018-09-30T00:25:30.163Z,1008.49
2018-09-30T00:26:30.128Z,1008.46
2018-09-30T00:27:30.109Z,1008.43
2018-09-30T00:28:30.076Z,1008.44
2018-09-30T00:29:30.057Z,1008.42
2018-09-30T00:30:30.028Z,1008.39
2018-09-30T00:31:29.991Z,1008.38
2018-09-30T00:32:29.967Z,1008.31
2018-09-30T00:33:29.948Z,1008.34
2018-09-30T00:34:29.913Z,1008.29
2018-09-30T00:35:29.884Z,1008.31
2018-09-30T00:36:29.859Z,1008.32
2018-09-30T00:37:29.826Z,1008.30
2018-09-30T00:38:29.804Z,1008.30
2018-09-30T00:39:29.773Z,1008.30
2018-09-30T00:40:29.747Z,1008.27
2018-09-30T00:41:29.729Z,1008.28
2018-09-30T00:42:29.699Z,1008.25
2018-09-30T00:43:29.674Z,1008.28
2018-09-30T00:44:29.648Z,1008.25
2018-09-30T00:45:29.610Z,1008.23
2018-09-30T00:46:29.586Z,1008.23
2018-09-30T00:47:29.562Z,1008.21
2018-09-30T00:48:29.531Z,1008.14
2018-09-30T00:49:29.501Z,1008.17
2018-09-30T00:50:29.485Z,1008.15
2018-09-30T00:51:29.445Z,1008.13
2018-09-30T00:52:29.426Z,1008.16
2018-09-30T00:53:29.398Z,1008.10
2018-09-30T00:54:29.365Z,1008.09
2018-09-30T00:55:29.348Z,1008.07
2018-09-30T00:56:29.312Z,1008.10
2018-09-30T00:57:29.311Z,1008.10
2018-09-30T00:58:29.256Z,1008.06
2018-09-30T00:59:29.237Z,1008.04
2018-09-30T01:00:29.210Z,1008.04
2018-09-30T01:01:29.175Z,1007.99
2018-09-30T01:02:29.158Z,1007.96
2018-09-30T01:03:29.121Z,1007.95
2018-09-30T01:04:29.099Z,1007.96
2018-09-30T01:05:29.074Z,1007.94
2018-09-30T01:06:29.048Z,1007.95
2018-09-30T01:07:29.017Z,1007.95
2018-09-30T01:08:28.985Z,1007.89
2018-09-30T01:09:28.961Z,1007.89
2018-09-30T01:10:28.936Z,1007.87
2018-09-30T01:11:28.905Z,1007.88
2018-09-30T01:12:28.889Z,1007.87
2018-09-30T01:13:28.850Z,1007.82
2018-09-30T01:14:28.825Z,1007.82
2018-09-30T01:15:28.813Z,1007.82
2018-09-30T01:16:28.770Z,1007.80
2018-09-30T01:17:28.748Z,1007.76
2018-09-30T01:18:28.724Z,1007.76
2018-09-30T01:19:28.686Z,1007.78
2018-09-30T01:20:28.662Z,1007.78
2018-09-30T01:21:28.632Z,1007.73
2018-09-30T01:22:28.604Z,1007.75
2018-09-30T01:23:28.577Z,1007.69
2018-09-30T01:24:28.559Z,1007.71
2018-09-30T01:25:28.526Z,1007.69
2018-09-30T01:26:28.496Z,1007.66
2018-09-30T01:27:28.473Z,1007.66
2018-09-30T01:28:28.441Z,1007.65
2018-09-30T01:29:28.424Z,1007.65
2018-09-30T01:30:28.392Z,1007.59
2018-09-30T01:31:28.361Z,1007.58
2018-09-30T01:32:28.339Z,1007.54
2018-09-30T01:33:28.303Z,1007.55
2018-09-30T01:34:28.280Z,1007.53
2018-09-30T01:35:28.253Z,1007.53
2018-09-30T01:36:28.223Z,1007.51
2018-09-30T01:37:28.199Z,1007.43
2018-09-30T01:38:28.169Z,1007.43
2018-09-30T01:39:28.145Z,1007.39
2018-09-30T01:40:28.116Z,1007.43
2018-09-30T01:41:28.088Z,1007.38
2018-09-30T01:42:28.064Z,1007.41
2018-09-30T01:43:28.043Z,1007.36
2018-09-30T01:44:28.007Z,1007.30
2018-09-30T01:45:27.982Z,1007.31
2018-09-30T01:46:27.954Z,1007.30
2018-09-30T01:47:27.926Z,1007.27
2018-09-30T01:48:27.904Z,1007.23
2018-09-30T01:49:27.877Z,1007.26
2018-09-30T01:50:27.849Z,1007.22
2018-09-30T01:51:27.815Z,1007.19
2018-09-30T01:52:27.793Z,1007.21
2018-09-30T01:53:27.763Z,1007.18
2018-09-30T01:54:27.732Z,1007.17
2018-09-30T01:55:27.714Z,1007.14
2018-09-30T01:56:27.686Z,1007.11
2018-09-30T01:57:27.649Z,1007.10
2018-09-30T01:58:27.634Z,1007.08
2018-09-30T01:59:27.601Z,1007.04
2018-09-30T02:00:27.567Z,1007.04
2018-09-30T02:01:27.550Z,1007.06
2018-09-30T02:02:27.515Z,1006.98
2018-09-30T02:03:27.496Z,1006.96
2018-09-30T02:04:27.468Z,1006.92
2018-09-30T02:05:27.443Z,1006.92
2018-09-30T02:06:27.421Z,1006.91
2018-09-30T02:07:27.379Z,1006.94
2018-09-30T02:08:27.353Z,1006.92
2018-09-30T02:09:27.328Z,1006.94
2018-09-30T02:10:27.304Z,1006.96
2018-09-30T02:11:27.266Z,1006.93
2018-09-30T02:12:27.257Z,1006.94
2018-09-30T02:13:27.223Z,1006.95
2018-09-30T02:14:27.186Z,1006.90
2018-09-30T02:15:27.170Z,1006.94
2018-09-30T02:16:27.140Z,1006.92
2018-09-30T02:17:27.109Z,1006.91
2018-09-30T02:18:27.082Z,1006.86
2018-09-30T02:19:27.057Z,1006.87
2018-09-30T02:20:27.027Z,1006.85
2018-09-30T02:21:27.004Z,1006.82
2018-09-30T02:22:26.974Z,1006.79
2018-09-30T02:23:26.945Z,1006.81
2018-09-30T02:24:26.922Z,1006.79
2018-09-30T02:25:26.890Z,1006.81
2018-09-30T02:26:26.859Z,1006.79
2018-09-30T02:27:26.837Z,1006.79
2018-09-30T02:28:26.807Z,1006.76
2018-09-30T02:29:26.776Z,1006.78
2018-09-30T02:30:26.755Z,1006.76
2018-09-30T02:31:26.727Z,1006.73
2018-09-30T02:32:26.697Z,1006.73
2018-09-30T02:33:26.679Z,1006.78
2018-09-30T02:34:26.647Z,1006.78
2018-09-30T02:35:26.615Z,1006.78
2018-09-30T02:36:26.599Z,1006.74
2018-09-30T02:37:26.558Z,1006.74
2018-09-30T02:38:26.540Z,1006.71
2018-09-30T02:39:26.515Z,1006.68
2018-09-30T02:40:26.487Z,1006.69
2018-09-30T02:41:26.454Z,1006.68
2018-09-30T02:42:26.434Z,1006.67
2018-09-30T02:43:26.403Z,1006.65
2018-09-30T02:44:26.373Z,1006.57
2018-09-30T02:45:26.358Z,1006.55
2018-09-30T02:46:26.318Z,1006.58
2018-09-30T02:47:26.288Z,1006.56
2018-09-30T02:48:26.265Z,1006.57
2018-09-30T02:49:26.241Z,1006.52
2018-09-30T02:50:26.205Z,1006.49
2018-09-30T02:51:26.184Z,1006.49
2018-09-30T02:52:26.155Z,1006.45
2018-09-30T02:53:26.127Z,1006.48
2018-09-30T02:54:26.104Z,1006.44
2018-09-30T02:55:26.069Z,1006.43
2018-09-30T02:56:26.042Z,1006.39
2018-09-30T02:57:26.025Z,1006.35
2018-09-30T02:58:25.984Z,1006.33
2018-09-30T02:59:25.971Z,1006.33
2018-09-30T03:00:25.943Z,1006.30
2018-09-30T03:01:25.910Z,1006.30
2018-09-30T03:02:25.894Z,1006.30
2018-09-30T03:03:25.859Z,1006.26
2018-09-30T03:04:25.820Z,1006.25
2018-09-30T03:05:25.804Z,1006.24
2018-09-30T03:06:25.773Z,1006.22
2018-09-30T03:07:25.749Z,1006.22
2018-09-30T03:08:25.719Z,1006.22
2018-09-30T03:09:25.687Z,1006.19
2018-09-30T03:10:25.666Z,1006.16
2018-09-30T03:11:25.631Z,1006.17
2018-09-30T03:12:25.605Z,1006.16
2018-09-30T03:13:25.580Z,1006.20
2018-09-30T03:14:25.574Z,1006.18
2018-09-30T03:15:25.526Z,1006.15
2018-09-30T03:16:25.493Z,1006.16
2018-09-30T03:17:25.468Z,1006.17
2018-09-30T03:18:25.446Z,1006.16
2018-09-30T03:19:25.413Z,1006.15
2018-09-30T03:20:25.393Z,1006.14
2018-09-30T03:21:25.364Z,1006.16
2018-09-30T03:22:25.337Z,1006.14
2018-09-30T03:23:25.302Z,1006.13
2018-09-30T03:24:25.297Z,1006.14
2018-09-30T03:25:25.258Z,1006.10
2018-09-30T03:26:25.217Z,1006.10
2018-09-30T03:27:25.198Z,1006.06
2018-09-30T03:28:25.166Z,1006.03
2018-09-30T03:29:25.137Z,1006.05
2018-09-30T03:30:25.120Z,1005.99
2018-09-30T03:31:25.092Z,1006.01
2018-09-30T03:32:25.065Z,1005.96
2018-09-30T03:33:25.034Z,1005.96
2018-09-30T03:34:25.015Z,1005.92
2018-09-30T03:35:24.968Z,1005.95
2018-09-30T03:36:24.945Z,1005.91
2018-09-30T03:37:24.924Z,1005.94
2018-09-30T03:38:24.893Z,1005.91
2018-09-30T03:39:24.916Z,1005.89
2018-09-30T03:40:24.841Z,1005.89
2018-09-30T03:41:24.805Z,1005.88
2018-09-30T03:42:24.786Z,1005.81
2018-09-30T03:43:24.758Z,1005.84
2018-09-30T03:44:24.733Z,1005.76
2018-09-30T03:45:24.700Z,1005.73
2018-09-30T03:46:24.673Z,1005.73
2018-09-30T03:47:24.648Z,1005.74
2018-09-30T03:48:24.619Z,1005.75
2018-09-30T03:49:24.605Z,1005.73
2018-09-30T03:50:24.565Z,1005.71
2018-09-30T03:51:24.548Z,1005.73
2018-09-30T03:52:24.513Z,1005.71
2018-09-30T03:53:24.484Z,1005.69
2018-09-30T03:54:24.452Z,1005.71
2018-09-30T03:55:24.427Z,1005.69
2018-09-30T03:56:24.396Z,1005.65
2018-09-30T03:57:24.377Z,1005.67
2018-09-30T03:58:24.399Z,1005.65
2018-09-30T03:59:24.313Z,1005.61
2018-09-30T04:00:24.290Z,1005.64
2018-09-30T04:01:24.265Z,1005.63
2018-09-30T04:02:24.232Z,1005.60
2018-09-30T04:03:24.209Z,1005.61
2018-09-30T04:04:24.184Z,1005.62
2018-09-30T04:05:24.154Z,1005.59
2018-09-30T04:06:24.128Z,1005.58
2018-09-30T04:07:24.093Z,1005.61
2018-09-30T04:08:24.073Z,1005.56
2018-09-30T04:09:24.085Z,1005.61
2018-09-30T04:10:24.016Z,1005.60
2018-09-30T04:11:23.991Z,1005.60
2018-09-30T04:12:23.966Z,1005.62
2018-09-30T04:13:23.932Z,1005.60
2018-09-30T04:14:23.917Z,1005.60
2018-09-30T04:15:23.873Z,1005.59
2018-09-30T04:16:23.854Z,1005.63
2018-09-30T04:17:23.899Z,1005.68
2018-09-30T04:18:23.793Z,1005.69
2018-09-30T04:19:23.766Z,1005.71
2018-09-30T04:20:23.747Z,1005.74
2018-09-30T04:21:23.720Z,1005.73
2018-09-30T04:22:23.688Z,1005.68
2018-09-30T04:23:23.661Z,1005.68
2018-09-30T04:24:23.626Z,1005.69
2018-09-30T04:25:23.610Z,1005.64
2018-09-30T04:26:23.580Z,1005.66
2018-09-30T04:27:23.544Z,1005.68
2018-09-30T04:28:23.527Z,1005.69
2018-09-30T04:29:23.490Z,1005.67
2018-09-30T04:30:23.461Z,1005.63
2018-09-30T04:31:23.444Z,1005.65
2018-09-30T04:32:23.404Z,1005.64
2018-09-30T04:33:23.468Z,1005.63
2018-09-30T04:34:23.364Z,1005.67
2018-09-30T04:35:23.331Z,1005.66
2018-09-30T04:36:23.303Z,1005.63
2018-09-30T04:37:23.279Z,1005.60
2018-09-30T04:38:23.256Z,1005.62
2018-09-30T04:39:23.216Z,1005.60
2018-09-30T04:40:23.185Z,1005.60
2018-09-30T04:41:23.166Z,1005.57
2018-09-30T04:42:23.140Z,1005.53
2018-09-30T04:43:23.112Z,1005.53
2018-09-30T04:44:23.083Z,1005.50
2018-09-30T04:45:23.049Z,1005.46
2018-09-30T04:46:23.023Z,1005.45
2018-09-30T04:47:23.000Z,1005.44
2018-09-30T04:48:22.978Z,1005.41
2018-09-30T04:49:22.940Z,1005.45
2018-09-30T04:50:22.919Z,1005.43
2018-09-30T04:51:22.886Z,1005.41
2018-09-30T04:52:22.868Z,1005.38
2018-09-30T04:53:22.831Z,1005.40
2018-09-30T04:54:22.804Z,1005.39
2018-09-30T04:55:22.780Z,1005.37
2018-09-30T04:56:22.757Z,1005.35
2018-09-30T04:57:22.719Z,1005.41
2018-09-30T04:58:22.693Z,1005.35
2018-09-30T04:59:22.672Z,1005.42
2018-09-30T05:00:22.657Z,1005.34
2018-09-30T05:01:22.617Z,1005.38
2018-09-30T05:02:22.592Z,1005.42
2018-09-30T05:03:22.557Z,1005.43
2018-09-30T05:04:22.527Z,1005.49
2018-09-30T05:05:22.509Z,1005.44
2018-09-30T05:06:22.470Z,1005.49
2018-09-30T05:07:22.451Z,1005.49
2018-09-30T05:08:22.428Z,1005.47
2018-09-30T05:09:22.393Z,1005.48
2018-09-30T05:10:22.372Z,1005.47
2018-09-30T05:11:22.331Z,1005.47
2018-09-30T05:12:22.315Z,1005.48
2018-09-30T05:13:22.281Z,1005.44
2018-09-30T05:14:22.262Z,1005.41
2018-09-30T05:15:22.231Z,1005.39
2018-09-30T05:16:22.256Z,1005.39
2018-09-30T05:17:22.179Z,1005.35
2018-09-30T05:18:22.146Z,1005.37
2018-09-30T05:19:22.115Z,1005.36
2018-09-30T05:20:22.092Z,1005.36
2018-09-30T05:21:22.061Z,1005.40
2018-09-30T05:22:22.036Z,1005.39
2018-09-30T05:23:22.004Z,1005.44
2018-09-30T05:24:21.988Z,1005.48
2018-09-30T05:25:21.949Z,1005.46
2018-09-30T05:26:21.931Z,1005.48
2018-09-30T05:27:21.899Z,1005.52
2018-09-30T05:28:21.864Z,1005.50
2018-09-30T05:29:21.840Z,1005.49
2018-09-30T05:30:21.813Z,1005.47
2018-09-30T05:31:21.842Z,1005.49
2018-09-30T05:32:21.762Z,1005.45
2018-09-30T05:33:21.728Z,1005.45
2018-09-30T05:34:21.705Z,1005.48
2018-09-30T05:35:21.676Z,1005.47
2018-09-30T05:36:21.657Z,1005.39
2018-09-30T05:37:21.618Z,1005.41
2018-09-30T05:38:21.593Z,1005.42
2018-09-30T05:39:21.571Z,1005.40
2018-09-30T05:40:21.539Z,1005.42
2018-09-30T05:41:21.509Z,1005.39
2018-09-30T05:42:21.497Z,1005.41
2018-09-30T05:43:21.454Z,1005.45
2018-09-30T05:44:21.425Z,1005.49
2018-09-30T05:45:21.398Z,1005.49
2018-09-30T05:46:21.374Z,1005.48
2018-09-30T05:47:21.349Z,1005.50
2018-09-30T05:48:21.325Z,1005.58
2018-09-30T05:49:21.294Z,1005.54
2018-09-30T05:50:21.265Z,1005.53
2018-09-30T05:51:21.240Z,1005.57
2018-09-30T05:52:21.211Z,1005.58
2018-09-30T05:53:21.180Z,1005.59
2018-09-30T05:54:21.153Z,1005.61
2018-09-30T05:55:21.130Z,1005.59
2018-09-30T05:56:21.102Z,1005.59
2018-09-30T05:57:21.068Z,1005.60
2018-09-30T05:58:21.049Z,1005.58
2018-09-30T05:59:21.013Z,1005.60
2018-09-30T06:00:20.989Z,1005.66
2018-09-30T06:01:20.970Z,1005.68
2018-09-30T06:02:20.928Z,1005.65
2018-09-30T06:03:20.912Z,1005.64
2018-09-30T06:04:20.890Z,1005.65
2018-09-30T06:05:20.861Z,1005.66
2018-09-30T06:06:20.829Z,1005.72
2018-09-30T06:07:20.796Z,1005.70
2018-09-30T06:08:20.766Z,1005.74
2018-09-30T06:09:20.798Z,1005.71
2018-09-30T06:10:20.713Z,1005.69
2018-09-30T06:11:20.685Z,1005.67
2018-09-30T06:12:20.655Z,1005.61
2018-09-30T06:13:20.740Z,1005.63
2018-09-30T06:14:20.634Z,1005.63
2018-09-30T06:15:20.591Z,1005.58
2018-09-30T06:16:20.551Z,1005.59
2018-09-30T06:17:20.523Z,1005.61
2018-09-30T06:18:20.513Z,1005.62
2018-09-30T06:19:20.462Z,1005.62
2018-09-30T06:20:20.435Z,1005.68
2018-09-30T06:21:20.433Z,1005.67
2018-09-30T06:22:20.394Z,1005.69
2018-09-30T06:23:20.374Z,1005.68
2018-09-30T06:24:20.325Z,1005.68
2018-09-30T06:25:20.306Z,1005.64
2018-09-30T06:26:20.278Z,1005.67
2018-09-30T06:27:20.244Z,1005.66
2018-09-30T06:28:20.218Z,1005.68
2018-09-30T06:29:20.185Z,1005.68
2018-09-30T06:30:20.163Z,1005.68
2018-09-30T06:31:20.139Z,1005.61
2018-09-30T06:32:20.105Z,1005.66
2018-09-30T06:33:20.103Z,1005.60
2018-09-30T06:34:20.055Z,1005.63
2018-09-30T06:35:20.042Z,1005.61
2018-09-30T06:36:20.003Z,1005.62
2018-09-30T06:37:19.995Z,1005.59
2018-09-30T06:38:19.942Z,1005.55
2018-09-30T06:39:19.917Z,1005.56
2018-09-30T06:40:19.981Z,1005.58
2018-09-30T06:41:19.862Z,1005.57
2018-09-30T06:42:19.861Z,1005.56
2018-09-30T06:43:19.805Z,1005.55
2018-09-30T06:44:19.785Z,1005.56
2018-09-30T06:45:19.758Z,1005.57
2018-09-30T06:46:19.725Z,1005.53
2018-09-30T06:47:19.704Z,1005.59
2018-09-30T06:48:19.672Z,1005.54
2018-09-30T06:49:19.645Z,1005.55
2018-09-30T06:50:19.660Z,1005.56
2018-09-30T06:51:19.631Z,1005.52
2018-09-30T06:52:19.570Z,1005.54
2018-09-30T06:53:19.533Z,1005.54
2018-09-30T06:54:19.501Z,1005.53
2018-09-30T06:55:19.473Z,1005.51
2018-09-30T06:56:19.444Z,1005.49
2018-09-30T06:57:19.437Z,1005.48
2018-09-30T06:58:19.389Z,1005.50
2018-09-30T06:59:19.372Z,1005.49
2018-09-30T07:00:19.346Z,1005.51
2018-09-30T07:01:19.307Z,1005.50
2018-09-30T07:02:19.288Z,1005.49
2018-09-30T07:03:19.256Z,1005.44
2018-09-30T07:04:19.225Z,1005.45
2018-09-30T07:05:19.201Z,1005.45
2018-09-30T07:06:19.172Z,1005.45
2018-09-30T07:07:19.149Z,1005.41
2018-09-30T07:08:19.123Z,1005.46
2018-09-30T07:09:19.093Z,1005.42
2018-09-30T07:10:19.072Z,1005.39
2018-09-30T07:11:19.038Z,1005.45
2018-09-30T07:12:19.017Z,1005.41
2018-09-30T07:13:18.980Z,1005.42
2018-09-30T07:14:18.951Z,1005.43
2018-09-30T07:15:18.935Z,1005.40
2018-09-30T07:16:18.900Z,1005.43
2018-09-30T07:17:18.879Z,1005.41
2018-09-30T07:18:18.850Z,1005.38
2018-09-30T07:19:18.818Z,1005.42
2018-09-30T07:20:18.791Z,1005.40
2018-09-30T07:21:18.765Z,1005.44
2018-09-30T07:22:18.805Z,1005.50
2018-09-30T07:23:18.704Z,1005.48
2018-09-30T07:24:18.682Z,1005.46
2018-09-30T07:25:18.652Z,1005.48
2018-09-30T07:26:18.621Z,1005.46
2018-09-30T07:27:18.603Z,1005.46
2018-09-30T07:28:18.576Z,1005.49
2018-09-30T07:29:18.545Z,1005.48
2018-09-30T07:30:18.518Z,1005.51
2018-09-30T07:31:18.491Z,1005.50
2018-09-30T07:32:18.473Z,1005.49
2018-09-30T07:33:18.445Z,1005.47
2018-09-30T07:34:18.407Z,1005.47
2018-09-30T07:35:18.391Z,1005.46
2018-09-30T07:36:18.354Z,1005.46
2018-09-30T07:37:18.326Z,1005.41
2018-09-30T07:38:18.293Z,1005.45
2018-09-30T07:39:18.279Z,1005.52
2018-09-30T07:40:18.241Z,1005.46
2018-09-30T07:41:18.217Z,1005.45
2018-09-30T07:42:18.192Z,1005.47
2018-09-30T07:43:18.160Z,1005.45
2018-09-30T07:44:18.133Z,1005.44
2018-09-30T07:45:18.108Z,1005.42
2018-09-30T07:46:18.081Z,1005.40
2018-09-30T07:47:18.053Z,1005.44
2018-09-30T07:48:18.020Z,1005.45
2018-09-30T07:49:18.009Z,1005.45
2018-09-30T07:50:17.975Z,1005.48
2018-09-30T07:51:17.943Z,1005.47
2018-09-30T07:52:17.916Z,1005.46
2018-09-30T07:53:17.888Z,1005.41
2018-09-30T07:54:17.862Z,1005.47
2018-09-30T07:55:17.840Z,1005.46
2018-09-30T07:56:17.806Z,1005.43
2018-09-30T07:57:17.779Z,1005.39
2018-09-30T07:58:17.754Z,1005.42
2018-09-30T07:59:17.729Z,1005.36
2018-09-30T08:00:17.693Z,1005.31
2018-09-30T08:01:17.675Z,1005.34
2018-09-30T08:02:17.645Z,1005.36
2018-09-30T08:03:17.622Z,1005.35
2018-09-30T08:04:17.596Z,1005.36
2018-09-30T08:05:17.557Z,1005.33
2018-09-30T08:06:17.545Z,1005.32
2018-09-30T08:07:17.503Z,1005.33
2018-09-30T08:08:17.478Z,1005.28
2018-09-30T08:09:17.454Z,1005.28
2018-09-30T08:10:17.427Z,1005.28
2018-09-30T08:11:17.396Z,1005.28
2018-09-30T08:12:17.376Z,1005.28
2018-09-30T08:13:17.341Z,1005.27
2018-09-30T08:14:17.315Z,1005.22
2018-09-30T08:15:17.285Z,1005.24
2018-09-30T08:16:17.264Z,1005.23
2018-09-30T08:17:17.238Z,1005.22
2018-09-30T08:18:17.216Z,1005.19
2018-09-30T08:19:17.179Z,1005.18
2018-09-30T08:20:17.157Z,1005.15
2018-09-30T08:21:17.129Z,1005.16
2018-09-30T08:22:17.097Z,1005.14
2018-09-30T08:23:17.081Z,1005.16
2018-09-30T08:24:17.105Z,1005.12
2018-09-30T08:25:17.017Z,1005.16
2018-09-30T08:26:16.989Z,1005.12
2018-09-30T08:27:16.967Z,1005.15
2018-09-30T08:28:16.932Z,1005.16
2018-09-30T08:29:16.917Z,1005.10
2018-09-30T08:30:16.887Z,1005.15
2018-09-30T08:31:16.856Z,1005.16
2018-09-30T08:32:16.834Z,1005.15
2018-09-30T08:33:16.807Z,1005.11
2018-09-30T08:34:16.778Z,1005.15
2018-09-30T08:35:16.748Z,1005.12
2018-09-30T08:36:16.726Z,1005.14
2018-09-30T08:37:16.690Z,1005.15
2018-09-30T08:38:16.682Z,1005.16
2018-09-30T08:39:16.642Z,1005.10
2018-09-30T08:40:16.610Z,1005.13
2018-09-30T08:41:16.591Z,1005.16
2018-09-30T08:42:16.727Z,1005.08
2018-09-30T08:43:16.539Z,1005.11
2018-09-30T08:44:16.598Z,1005.14
2018-09-30T08:45:16.474Z,1005.13
2018-09-30T08:46:16.465Z,1005.14
2018-09-30T08:47:16.534Z,1005.16
2018-09-30T08:48:16.401Z,1005.19
2018-09-30T08:49:16.402Z,1005.15
2018-09-30T08:50:16.343Z,1005.19
2018-09-30T08:51:16.322Z,1005.22
2018-09-30T08:52:16.295Z,1005.16
2018-09-30T08:53:16.270Z,1005.21
2018-09-30T08:54:16.241Z,1005.20
2018-09-30T08:55:16.208Z,1005.20
2018-09-30T08:56:16.233Z,1005.18
2018-09-30T08:57:16.160Z,1005.19
2018-09-30T08:58:16.134Z,1005.16
2018-09-30T08:59:16.105Z,1005.19
2018-09-30T09:00:16.082Z,1005.18
2018-09-30T09:01:16.061Z,1005.17
2018-09-30T09:02:16.032Z,1005.11
2018-09-30T09:03:15.994Z,1005.15
2018-09-30T09:04:15.966Z,1005.16
2018-09-30T09:05:15.948Z,1005.16
2018-09-30T09:06:15.915Z,1005.20
2018-09-30T09:07:15.892Z,1005.17
2018-09-30T09:08:15.879Z,1005.20
2018-09-30T09:09:15.833Z,1005.14
2018-09-30T09:10:15.815Z,1005.12
2018-09-30T09:11:15.776Z,1005.15
2018-09-30T09:12:15.753Z,1005.14
2018-09-30T09:13:15.727Z,1005.11
2018-09-30T09:14:15.703Z,1005.17
2018-09-30T09:15:15.682Z,1005.15
2018-09-30T09:16:15.653Z,1005.22
2018-09-30T09:17:15.623Z,1005.20
2018-09-30T09:18:15.593Z,1005.22
2018-09-30T09:19:15.563Z,1005.21
2018-09-30T09:20:15.546Z,1005.17
2018-09-30T09:21:15.525Z,1005.16
2018-09-30T09:22:15.519Z,1005.19
2018-09-30T09:23:15.458Z,1005.14
2018-09-30T09:24:15.437Z,1005.15
2018-09-30T09:25:15.406Z,1005.21
2018-09-30T09:26:15.384Z,1005.16
2018-09-30T09:27:15.367Z,1005.18
2018-09-30T09:28:15.330Z,1005.12
2018-09-30T09:29:15.307Z,1005.12
2018-09-30T09:30:15.277Z,1005.12
2018-09-30T09:31:15.252Z,1005.12
2018-09-30T09:32:15.227Z,1005.17
2018-09-30T09:33:15.196Z,1005.12
2018-09-30T09:34:15.197Z,1005.16
2018-09-30T09:35:15.222Z,1005.15
2018-09-30T09:36:15.118Z,1005.15
2018-09-30T09:37:15.102Z,1005.10
2018-09-30T09:38:15.068Z,1005.14
2018-09-30T09:39:15.040Z,1005.18
2018-09-30T09:40:15.012Z,1005.16
2018-09-30T09:41:14.980Z,1005.14
2018-09-30T09:42:14.957Z,1005.20
2018-09-30T09:43:14.929Z,1005.21
2018-09-30T09:44:14.904Z,1005.17
2018-09-30T09:45:14.873Z,1005.21
2018-09-30T09:46:14.848Z,1005.16
2018-09-30T09:47:14.823Z,1005.17
2018-09-30T09:48:14.798Z,1005.14
2018-09-30T09:49:14.768Z,1005.13
2018-09-30T09:50:14.746Z,1005.12
2018-09-30T09:51:14.720Z,1005.08
2018-09-30T09:52:14.689Z,1005.08
2018-09-30T09:53:14.661Z,1005.11
2018-09-30T09:54:14.632Z,1005.10
2018-09-30T09:55:14.618Z,1005.08
2018-09-30T09:56:14.580Z,1005.07
2018-09-30T09:57:14.557Z,1005.07
2018-09-30T09:58:14.537Z,1005.08
2018-09-30T09:59:14.693Z,1005.09
2018-09-30T10:00:14.479Z,1005.13
2018-09-30T10:01:14.456Z,1005.05
2018-09-30T10:02:14.419Z,1005.00
2018-09-30T10:03:14.402Z,1005.00
2018-09-30T10:04:14.369Z,1004.91
2018-09-30T10:05:14.402Z,1004.95
2018-09-30T10:06:14.326Z,1004.91
2018-09-30T10:07:14.336Z,1004.88
2018-09-30T10:08:14.286Z,1004.85
2018-09-30T10:09:14.243Z,1004.83
2018-09-30T10:10:14.215Z,1004.83
2018-09-30T10:11:14.183Z,1004.85
2018-09-30T10:12:14.160Z,1004.82
2018-09-30T10:13:14.139Z,1004.84
2018-09-30T10:14:14.104Z,1004.82
2018-09-30T10:15:14.090Z,1004.80
2018-09-30T10:16:14.054Z,1004.83
2018-09-30T10:17:14.022Z,1004.76
2018-09-30T10:18:14.009Z,1004.78
2018-09-30T10:19:15.691Z,1004.82
2018-09-30T10:20:13.950Z,1004.76
2018-09-30T10:21:13.920Z,1004.75
2018-09-30T10:22:13.895Z,1004.71
2018-09-30T10:23:13.871Z,1004.70
2018-09-30T10:24:13.842Z,1004.64
2018-09-30T10:25:13.819Z,1004.65
2018-09-30T10:26:13.787Z,1004.62
2018-09-30T10:27:13.766Z,1004.58
2018-09-30T10:28:13.740Z,1004.58
2018-09-30T10:29:13.705Z,1004.59
2018-09-30T10:30:13.690Z,1004.56
2018-09-30T10:31:13.652Z,1004.60
2018-09-30T10:32:13.634Z,1004.57
2018-09-30T10:33:13.604Z,1004.61
2018-09-30T10:34:13.573Z,1004.56
2018-09-30T10:35:13.549Z,1004.53
2018-09-30T10:36:13.530Z,1004.60
2018-09-30T10:37:13.501Z,1004.53
2018-09-30T10:38:13.493Z,1004.53
2018-09-30T10:39:13.726Z,1004.49
2018-09-30T10:40:13.426Z,1004.49
2018-09-30T10:41:13.389Z,1004.47
2018-09-30T10:42:13.366Z,1004.43
2018-09-30T10:43:13.341Z,1004.40
2018-09-30T10:44:13.316Z,1004.42
2018-09-30T10:45:13.285Z,1004.33
2018-09-30T10:46:13.273Z,1004.38
2018-09-30T10:47:13.236Z,1004.37
2018-09-30T10:48:13.215Z,1004.39
2018-09-30T10:49:13.183Z,1004.34
2018-09-30T10:50:13.155Z,1004.30
2018-09-30T10:51:13.127Z,1004.31
2018-09-30T10:52:13.099Z,1004.29
2018-09-30T10:53:13.083Z,1004.31
2018-09-30T10:54:13.049Z,1004.25
2018-09-30T10:55:13.046Z,1004.22
2018-09-30T10:56:12.993Z,1004.20
2018-09-30T10:57:12.976Z,1004.20
2018-09-30T10:58:12.942Z,1004.14
2018-09-30T10:59:12.922Z,1004.12
2018-09-30T11:00:12.890Z,1004.14
2018-09-30T11:01:12.868Z,1004.12
2018-09-30T11:02:12.850Z,1004.11
2018-09-30T11:03:12.811Z,1004.10
2018-09-30T11:04:12.819Z,1004.06
2018-09-30T11:05:12.762Z,1004.06
2018-09-30T11:06:12.747Z,1004.03
2018-09-30T11:07:12.715Z,1004.08
2018-09-30T11:08:12.697Z,1004.02
2018-09-30T11:09:12.653Z,1003.98
2018-09-30T11:10:12.654Z,1003.94
2018-09-30T11:11:12.603Z,1003.96
2018-09-30T11:12:13.232Z,1003.92
2018-09-30T11:13:12.548Z,1003.96
2018-09-30T11:14:12.532Z,1003.98
2018-09-30T11:15:12.503Z,1003.96
2018-09-30T11:16:12.589Z,1003.96
2018-09-30T11:17:12.447Z,1003.94
2018-09-30T11:18:12.421Z,1003.96
2018-09-30T11:19:12.397Z,1003.94
2018-09-30T11:20:12.365Z,1003.90
2018-09-30T11:21:12.342Z,1003.90
2018-09-30T11:22:12.316Z,1003.86
2018-09-30T11:23:12.290Z,1003.82
2018-09-30T11:24:12.264Z,1003.80
2018-09-30T11:25:12.234Z,1003.73
2018-09-30T11:26:12.212Z,1003.73
2018-09-30T11:27:12.189Z,1003.75
2018-09-30T11:28:12.164Z,1003.68
2018-09-30T11:29:12.131Z,1003.67
2018-09-30T11:30:12.102Z,1003.71
2018-09-30T11:31:12.082Z,1003.66
2018-09-30T11:32:12.058Z,1003.61
2018-09-30T11:33:12.024Z,1003.63
2018-09-30T11:34:12.013Z,1003.60
2018-09-30T11:35:11.969Z,1003.60
2018-09-30T11:36:11.953Z,1003.59
2018-09-30T11:37:11.928Z,1003.56
2018-09-30T11:38:11.898Z,1003.63
2018-09-30T11:39:11.874Z,1003.60
2018-09-30T11:40:11.853Z,1003.58
2018-09-30T11:41:11.821Z,1003.63
2018-09-30T11:42:11.796Z,1003.60
2018-09-30T11:43:11.772Z,1003.63
2018-09-30T11:44:11.738Z,1003.60
2018-09-30T11:45:11.721Z,1003.60
2018-09-30T11:46:11.687Z,1003.57
2018-09-30T11:47:11.663Z,1003.55
2018-09-30T11:48:11.638Z,1003.58
2018-09-30T11:49:11.608Z,1003.56
2018-09-30T11:50:11.698Z,1003.57
2018-09-30T11:51:11.559Z,1003.57
2018-09-30T11:52:11.530Z,1003.49
2018-09-30T11:53:11.504Z,1003.54
2018-09-30T11:54:11.482Z,1003.51
2018-09-30T11:55:11.457Z,1003.53
2018-09-30T11:56:11.428Z,1003.50
2018-09-30T11:57:11.400Z,1003.46
2018-09-30T11:58:11.381Z,1003.44
2018-09-30T11:59:11.345Z,1003.44
2018-09-30T12:00:11.340Z,1003.40
2018-09-30T12:01:11.322Z,1003.37
2018-09-30T12:02:11.290Z,1003.34
2018-09-30T12:03:11.241Z,1003.39
2018-09-30T12:04:11.239Z,1003.33
2018-09-30T12:05:11.194Z,1003.37